sensor_id;sensor_type;location;lat;lon;timestamp;P1;durP1;ratioP1;P2;durP2;ratioP2
48795;SDS011;34607;48.520;-1.330;2023-07-31T06:40:13;10.63;;;5.25;;
48795;SDS011;34607;48.520;-1.330;2023-07-31T06:42:41;16.75;;;6.50;;
48795;SDS011;34607;48.520;-1.330;2023-07-31T06:45:09;15.45;;;5.60;;
48795;SDS011;34607;48.520;-1.330;2023-07-31T06:47:36;14.18;;;5.88;;
48795;SDS011;34607;48.520;-1.330;2023-07-31T06:50:04;12.05;;;5.93;;
48795;SDS011;34607;48.520;-1.330;2023-07-31T06:52:31;14.88;;;5.72;;
48795;SDS011;34607;48.520;-1.330;2023-07-31T06:55:01;15.18;;;6.22;;
48795;SDS011;34607;48.520;-1.330;2023-07-31T06:57:31;13.07;;;5.35;;
48795;SDS011;34607;48.520;-1.330;2023-07-31T06:59:58;12.02;;;5.30;;
48795;SDS011;34607;48.520;-1.330;2023-07-31T07:02:25;9.35;;;5.35;;
48795;SDS011;34607;48.520;-1.330;2023-07-31T07:04:52;20.25;;;6.43;;
48795;SDS011;34607;48.520;-1.330;2023-07-31T07:07:19;14.50;;;5.70;;
48795;SDS011;34607;48.520;-1.330;2023-07-31T07:09:46;10.68;;;4.75;;
48795;SDS011;34607;48.520;-1.330;2023-07-31T07:12:13;12.50;;;5.40;;
48795;SDS011;34607;48.520;-1.330;2023-07-31T07:14:42;13.75;;;5.68;;
48795;SDS011;34607;48.520;-1.330;2023-07-31T07:17:09;11.90;;;5.72;;
48795;SDS011;34607;48.520;-1.330;2023-07-31T07:19:36;14.10;;;4.82;;
48795;SDS011;34607;48.520;-1.330;2023-07-31T07:22:03;13.40;;;5.20;;
48795;SDS011;34607;48.520;-1.330;2023-07-31T07:24:30;12.05;;;4.70;;
48795;SDS011;34607;48.520;-1.330;2023-07-31T07:26:57;13.52;;;5.25;;
48795;SDS011;34607;48.520;-1.330;2023-07-31T07:29:24;11.68;;;4.75;;
48795;SDS011;34607;48.520;-1.330;2023-07-31T07:31:52;14.77;;;5.25;;
48795;SDS011;34607;48.520;-1.330;2023-07-31T07:34:22;16.25;;;4.78;;
48795;SDS011;34607;48.520;-1.330;2023-07-31T07:36:49;10.10;;;4.68;;
48795;SDS011;34607;48.520;-1.330;2023-07-31T07:39:16;14.10;;;4.60;;
48795;SDS011;34607;48.520;-1.330;2023-07-31T07:41:43;7.35;;;5.03;;
48795;SDS011;34607;48.520;-1.330;2023-07-31T07:44:10;11.88;;;5.20;;
48795;SDS011;34607;48.520;-1.330;2023-07-31T07:46:37;11.00;;;4.65;;
48795;SDS011;34607;48.520;-1.330;2023-07-31T07:49:05;11.10;;;4.57;;
48795;SDS011;34607;48.520;-1.330;2023-07-31T07:51:33;8.15;;;4.28;;
48795;SDS011;34607;48.520;-1.330;2023-07-31T07:54:00;11.43;;;4.40;;
48795;SDS011;34607;48.520;-1.330;2023-07-31T07:56:27;10.75;;;5.13;;
48795;SDS011;34607;48.520;-1.330;2023-07-31T07:58:54;11.43;;;4.80;;
48795;SDS011;34607;48.520;-1.330;2023-07-31T08:01:21;13.50;;;5.20;;
48795;SDS011;34607;48.520;-1.330;2023-07-31T08:03:48;10.18;;;4.50;;
48795;SDS011;34607;48.520;-1.330;2023-07-31T08:06:17;11.65;;;3.95;;
48795;SDS011;34607;48.520;-1.330;2023-07-31T08:08:44;11.23;;;4.22;;
48795;SDS011;34607;48.520;-1.330;2023-07-31T08:11:11;8.45;;;3.60;;
48795;SDS011;34607;48.520;-1.330;2023-07-31T08:13:38;12.55;;;4.18;;
48795;SDS011;34607;48.520;-1.330;2023-07-31T08:16:05;8.60;;;3.90;;
48795;SDS011;34607;48.520;-1.330;2023-07-31T08:18:32;11.52;;;4.80;;
48795;SDS011;34607;48.520;-1.330;2023-07-31T08:21:01;8.80;;;4.60;;
48795;SDS011;34607;48.520;-1.330;2023-07-31T08:23:29;9.13;;;4.07;;
48795;SDS011;34607;48.520;-1.330;2023-07-31T08:25:56;7.45;;;3.47;;
48795;SDS011;34607;48.520;-1.330;2023-07-31T08:28:23;8.48;;;4.13;;
48795;SDS011;34607;48.520;-1.330;2023-07-31T08:30:50;8.70;;;3.67;;
48795;SDS011;34607;48.520;-1.330;2023-07-31T08:33:17;9.52;;;3.50;;
48795;SDS011;34607;48.520;-1.330;2023-07-31T08:35:44;8.00;;;4.03;;
48795;SDS011;34607;48.520;-1.330;2023-07-31T08:38:12;9.00;;;3.45;;
48795;SDS011;34607;48.520;-1.330;2023-07-31T08:40:40;9.40;;;3.70;;
48795;SDS011;34607;48.520;-1.330;2023-07-31T08:43:08;10.32;;;3.95;;
48795;SDS011;34607;48.520;-1.330;2023-07-31T08:45:35;8.48;;;3.17;;
48795;SDS011;34607;48.520;-1.330;2023-07-31T08:48:03;10.82;;;3.90;;
48795;SDS011;34607;48.520;-1.330;2023-07-31T08:50:31;10.75;;;3.80;;
48795;SDS011;34607;48.520;-1.330;2023-07-31T08:52:59;8.13;;;3.90;;
48795;SDS011;34607;48.520;-1.330;2023-07-31T08:55:27;10.98;;;4.05;;
48795;SDS011;34607;48.520;-1.330;2023-07-31T08:57:56;11.82;;;4.35;;
48795;SDS011;34607;48.520;-1.330;2023-07-31T09:00:25;9.43;;;4.32;;
48795;SDS011;34607;48.520;-1.330;2023-07-31T09:02:54;10.15;;;3.90;;
48795;SDS011;34607;48.520;-1.330;2023-07-31T09:05:28;9.45;;;3.67;;
48795;SDS011;34607;48.520;-1.330;2023-07-31T09:07:56;9.38;;;3.72;;
48795;SDS011;34607;48.520;-1.330;2023-07-31T09:10:24;8.90;;;3.65;;
48795;SDS011;34607;48.520;-1.330;2023-07-31T09:12:51;8.10;;;3.70;;
48795;SDS011;34607;48.520;-1.330;2023-07-31T09:15:20;9.93;;;3.38;;
48795;SDS011;34607;48.520;-1.330;2023-07-31T09:17:48;7.75;;;3.55;;
48795;SDS011;34607;48.520;-1.330;2023-07-31T09:20:24;4.60;;;3.10;;
48795;SDS011;34607;48.520;-1.330;2023-07-31T09:22:51;9.38;;;3.33;;
48795;SDS011;34607;48.520;-1.330;2023-07-31T09:25:19;8.70;;;3.50;;
48795;SDS011;34607;48.520;-1.330;2023-07-31T09:27:48;7.63;;;3.38;;
48795;SDS011;34607;48.520;-1.330;2023-07-31T09:30:16;5.35;;;3.33;;
48795;SDS011;34607;48.520;-1.330;2023-07-31T09:32:45;9.35;;;4.43;;
48795;SDS011;34607;48.520;-1.330;2023-07-31T09:35:13;9.27;;;3.92;;
48795;SDS011;34607;48.520;-1.330;2023-07-31T09:37:48;5.78;;;3.45;;
48795;SDS011;34607;48.520;-1.330;2023-07-31T09:40:25;7.22;;;3.47;;
48795;SDS011;34607;48.520;-1.330;2023-07-31T09:42:54;4.80;;;3.13;;
48795;SDS011;34607;48.520;-1.330;2023-07-31T09:45:24;6.25;;;4.03;;
48795;SDS011;34607;48.520;-1.330;2023-07-31T09:47:52;4.53;;;2.88;;
48795;SDS011;34607;48.520;-1.330;2023-07-31T09:50:20;7.30;;;3.45;;
48795;SDS011;34607;48.520;-1.330;2023-07-31T09:52:48;5.15;;;3.53;;
48795;SDS011;34607;48.520;-1.330;2023-07-31T09:55:15;7.75;;;3.53;;
48795;SDS011;34607;48.520;-1.330;2023-07-31T09:57:43;6.75;;;3.63;;
48795;SDS011;34607;48.520;-1.330;2023-07-31T10:00:12;7.25;;;3.90;;
48795;SDS011;34607;48.520;-1.330;2023-07-31T10:02:41;9.43;;;4.28;;
48795;SDS011;34607;48.520;-1.330;2023-07-31T10:05:12;6.75;;;4.03;;
48795;SDS011;34607;48.520;-1.330;2023-07-31T10:07:44;6.03;;;3.78;;
48795;SDS011;34607;48.520;-1.330;2023-07-31T10:10:17;9.27;;;4.20;;
48795;SDS011;34607;48.520;-1.330;2023-07-31T10:12:48;7.55;;;3.70;;
48795;SDS011;34607;48.520;-1.330;2023-07-31T10:15:16;7.22;;;3.67;;
48795;SDS011;34607;48.520;-1.330;2023-07-31T10:17:43;8.98;;;4.70;;
48795;SDS011;34607;48.520;-1.330;2023-07-31T10:20:12;7.32;;;4.32;;
48795;SDS011;34607;48.520;-1.330;2023-07-31T10:22:41;10.20;;;4.70;;
48795;SDS011;34607;48.520;-1.330;2023-07-31T10:25:09;11.40;;;4.80;;
48795;SDS011;34607;48.520;-1.330;2023-07-31T10:27:36;7.82;;;4.40;;
48795;SDS011;34607;48.520;-1.330;2023-07-31T10:30:06;11.48;;;5.05;;
48795;SDS011;34607;48.520;-1.330;2023-07-31T10:32:36;10.45;;;4.78;;
48795;SDS011;34607;48.520;-1.330;2023-07-31T10:35:06;11.43;;;5.18;;
48795;SDS011;34607;48.520;-1.330;2023-07-31T10:37:37;9.65;;;4.90;;
48795;SDS011;34607;48.520;-1.330;2023-07-31T10:40:06;7.22;;;5.07;;
48795;SDS011;34607;48.520;-1.330;2023-07-31T10:42:37;8.40;;;5.22;;
48795;SDS011;34607;48.520;-1.330;2023-07-31T10:45:12;9.18;;;5.05;;
48795;SDS011;34607;48.520;-1.330;2023-07-31T10:47:42;11.00;;;5.53;;
48795;SDS011;34607;48.520;-1.330;2023-07-31T10:50:15;12.43;;;5.40;;
48795;SDS011;34607;48.520;-1.330;2023-07-31T10:52:47;10.70;;;5.30;;
48795;SDS011;34607;48.520;-1.330;2023-07-31T10:55:25;10.27;;;5.13;;
48795;SDS011;34607;48.520;-1.330;2023-07-31T10:57:53;7.20;;;6.00;;
48795;SDS011;34607;48.520;-1.330;2023-07-31T11:00:22;19.17;;;5.75;;
48795;SDS011;34607;48.520;-1.330;2023-07-31T11:03:03;16.73;;;6.00;;
48795;SDS011;34607;48.520;-1.330;2023-07-31T11:05:45;12.02;;;5.70;;
48795;SDS011;34607;48.520;-1.330;2023-07-31T11:08:15;14.32;;;5.68;;
48795;SDS011;34607;48.520;-1.330;2023-07-31T11:10:44;10.52;;;5.50;;
48795;SDS011;34607;48.520;-1.330;2023-07-31T11:13:13;10.77;;;5.20;;
48795;SDS011;34607;48.520;-1.330;2023-07-31T11:15:40;8.95;;;6.40;;
48795;SDS011;34607;48.520;-1.330;2023-07-31T11:18:08;16.65;;;6.18;;
48795;SDS011;34607;48.520;-1.330;2023-07-31T11:20:37;9.73;;;5.40;;
48795;SDS011;34607;48.520;-1.330;2023-07-31T11:23:08;11.88;;;6.05;;
48795;SDS011;34607;48.520;-1.330;2023-07-31T11:25:38;11.88;;;5.68;;
48795;SDS011;34607;48.520;-1.330;2023-07-31T11:28:08;9.25;;;5.43;;
48795;SDS011;34607;48.520;-1.330;2023-07-31T11:30:37;9.00;;;5.35;;
48795;SDS011;34607;48.520;-1.330;2023-07-31T11:33:05;10.45;;;5.63;;
48795;SDS011;34607;48.520;-1.330;2023-07-31T11:35:33;8.95;;;5.07;;
48795;SDS011;34607;48.520;-1.330;2023-07-31T11:38:02;9.25;;;6.00;;
48795;SDS011;34607;48.520;-1.330;2023-07-31T11:40:29;10.50;;;5.57;;
48795;SDS011;34607;48.520;-1.330;2023-07-31T11:42:58;12.48;;;5.53;;
48795;SDS011;34607;48.520;-1.330;2023-07-31T11:45:30;7.78;;;5.07;;
48795;SDS011;34607;48.520;-1.330;2023-07-31T11:47:58;11.15;;;4.97;;
48795;SDS011;34607;48.520;-1.330;2023-07-31T11:50:25;10.18;;;5.38;;
48795;SDS011;34607;48.520;-1.330;2023-07-31T11:52:53;14.98;;;6.07;;
48795;SDS011;34607;48.520;-1.330;2023-07-31T11:55:23;12.30;;;6.03;;
48795;SDS011;34607;48.520;-1.330;2023-07-31T11:57:51;10.85;;;6.03;;
48795;SDS011;34607;48.520;-1.330;2023-07-31T12:00:22;13.23;;;5.85;;
48795;SDS011;34607;48.520;-1.330;2023-07-31T12:02:50;10.45;;;5.70;;
48795;SDS011;34607;48.520;-1.330;2023-07-31T12:05:17;8.57;;;5.75;;
48795;SDS011;34607;48.520;-1.330;2023-07-31T12:07:45;9.05;;;5.65;;
48795;SDS011;34607;48.520;-1.330;2023-07-31T12:10:24;9.23;;;5.45;;
48795;SDS011;34607;48.520;-1.330;2023-07-31T12:13:02;7.22;;;5.68;;
48795;SDS011;34607;48.520;-1.330;2023-07-31T12:15:35;10.57;;;5.70;;
48795;SDS011;34607;48.520;-1.330;2023-07-31T12:20:31;9.00;;;4.90;;
48795;SDS011;34607;48.520;-1.330;2023-07-31T12:22:59;11.27;;;5.30;;
48795;SDS011;34607;48.520;-1.330;2023-07-31T12:25:30;8.80;;;4.80;;
48795;SDS011;34607;48.520;-1.330;2023-07-31T12:27:57;8.27;;;4.32;;
48795;SDS011;34607;48.520;-1.330;2023-07-31T12:30:31;6.15;;;4.20;;
48795;SDS011;34607;48.520;-1.330;2023-07-31T12:33:04;6.47;;;4.47;;
48795;SDS011;34607;48.520;-1.330;2023-07-31T12:35:35;6.72;;;3.97;;
48795;SDS011;34607;48.520;-1.330;2023-07-31T12:38:07;5.32;;;3.85;;
48795;SDS011;34607;48.520;-1.330;2023-07-31T12:40:36;7.72;;;4.43;;
48795;SDS011;34607;48.520;-1.330;2023-07-31T12:43:04;7.80;;;3.58;;
48795;SDS011;34607;48.520;-1.330;2023-07-31T12:45:31;8.05;;;3.65;;
48795;SDS011;34607;48.520;-1.330;2023-07-31T12:47:59;7.78;;;4.30;;
48795;SDS011;34607;48.520;-1.330;2023-07-31T12:50:27;5.15;;;2.83;;
48795;SDS011;34607;48.520;-1.330;2023-07-31T12:52:54;6.40;;;3.92;;
48795;SDS011;34607;48.520;-1.330;2023-07-31T12:55:21;5.93;;;3.08;;
48795;SDS011;34607;48.520;-1.330;2023-07-31T12:57:49;5.03;;;3.33;;
48795;SDS011;34607;48.520;-1.330;2023-07-31T13:00:16;8.05;;;3.40;;
48795;SDS011;34607;48.520;-1.330;2023-07-31T13:02:43;4.97;;;2.50;;
48795;SDS011;34607;48.520;-1.330;2023-07-31T13:05:10;6.47;;;3.10;;
48795;SDS011;34607;48.520;-1.330;2023-07-31T13:07:40;2.80;;;2.50;;
48795;SDS011;34607;48.520;-1.330;2023-07-31T13:10:07;6.63;;;3.42;;
48795;SDS011;34607;48.520;-1.330;2023-07-31T13:12:35;6.68;;;3.63;;
48795;SDS011;34607;48.520;-1.330;2023-07-31T13:15:02;5.85;;;2.92;;
48795;SDS011;34607;48.520;-1.330;2023-07-31T13:17:29;6.05;;;3.30;;
48795;SDS011;34607;48.520;-1.330;2023-07-31T13:19:56;6.38;;;2.78;;
48795;SDS011;34607;48.520;-1.330;2023-07-31T13:22:23;5.72;;;2.80;;
48795;SDS011;34607;48.520;-1.330;2023-07-31T13:24:52;4.72;;;3.20;;
48795;SDS011;34607;48.520;-1.330;2023-07-31T13:27:19;10.60;;;3.25;;
48795;SDS011;34607;48.520;-1.330;2023-07-31T13:29:47;4.10;;;3.08;;
48795;SDS011;34607;48.520;-1.330;2023-07-31T13:32:15;6.30;;;3.20;;
48795;SDS011;34607;48.520;-1.330;2023-07-31T13:34:42;6.38;;;3.45;;
48795;SDS011;34607;48.520;-1.330;2023-07-31T13:37:09;5.30;;;3.20;;
48795;SDS011;34607;48.520;-1.330;2023-07-31T13:39:36;6.45;;;2.92;;
48795;SDS011;34607;48.520;-1.330;2023-07-31T13:42:06;5.13;;;2.90;;
48795;SDS011;34607;48.520;-1.330;2023-07-31T13:44:33;4.28;;;2.80;;
48795;SDS011;34607;48.520;-1.330;2023-07-31T13:47:01;5.05;;;2.95;;
48795;SDS011;34607;48.520;-1.330;2023-07-31T13:49:28;5.55;;;2.55;;
48795;SDS011;34607;48.520;-1.330;2023-07-31T13:51:56;4.57;;;2.47;;
48795;SDS011;34607;48.520;-1.330;2023-07-31T13:54:23;4.85;;;2.80;;
48795;SDS011;34607;48.520;-1.330;2023-07-31T13:56:51;4.40;;;2.67;;
48795;SDS011;34607;48.520;-1.330;2023-07-31T13:59:20;4.65;;;3.20;;
48795;SDS011;34607;48.520;-1.330;2023-07-31T14:01:47;5.40;;;2.30;;
48795;SDS011;34607;48.520;-1.330;2023-07-31T14:04:14;4.45;;;2.63;;
48795;SDS011;34607;48.520;-1.330;2023-07-31T14:06:42;3.05;;;2.22;;
48795;SDS011;34607;48.520;-1.330;2023-07-31T14:09:10;1.92;;;1.73;;
48795;SDS011;34607;48.520;-1.330;2023-07-31T14:11:37;2.38;;;2.03;;
48795;SDS011;34607;48.520;-1.330;2023-07-31T14:14:04;4.25;;;2.22;;
48795;SDS011;34607;48.520;-1.330;2023-07-31T14:16:32;4.28;;;2.22;;
48795;SDS011;34607;48.520;-1.330;2023-07-31T14:18:59;7.93;;;2.13;;
48795;SDS011;34607;48.520;-1.330;2023-07-31T14:21:26;2.95;;;1.90;;
48795;SDS011;34607;48.520;-1.330;2023-07-31T14:23:53;3.20;;;1.70;;
48795;SDS011;34607;48.520;-1.330;2023-07-31T14:26:20;3.28;;;2.00;;
48795;SDS011;34607;48.520;-1.330;2023-07-31T14:28:47;5.35;;;1.85;;
48795;SDS011;34607;48.520;-1.330;2023-07-31T14:31:14;7.32;;;3.63;;
48795;SDS011;34607;48.520;-1.330;2023-07-31T14:33:43;3.60;;;2.85;;
48795;SDS011;34607;48.520;-1.330;2023-07-31T14:36:10;3.97;;;2.70;;
48795;SDS011;34607;48.520;-1.330;2023-07-31T14:38:37;5.07;;;2.80;;
48795;SDS011;34607;48.520;-1.330;2023-07-31T14:41:04;2.63;;;1.95;;
48795;SDS011;34607;48.520;-1.330;2023-07-31T14:43:31;1.65;;;1.50;;
48795;SDS011;34607;48.520;-1.330;2023-07-31T14:45:58;2.47;;;1.60;;
48795;SDS011;34607;48.520;-1.330;2023-07-31T14:48:25;2.30;;;1.20;;
48795;SDS011;34607;48.520;-1.330;2023-07-31T14:50:55;4.07;;;1.25;;
48795;SDS011;34607;48.520;-1.330;2023-07-31T14:53:23;1.60;;;1.20;;
48795;SDS011;34607;48.520;-1.330;2023-07-31T14:55:50;1.80;;;0.98;;
48795;SDS011;34607;48.520;-1.330;2023-07-31T14:58:17;2.95;;;1.15;;
48795;SDS011;34607;48.520;-1.330;2023-07-31T15:00:44;1.23;;;0.75;;
48795;SDS011;34607;48.520;-1.330;2023-07-31T15:03:11;1.25;;;0.80;;
48795;SDS011;34607;48.520;-1.330;2023-07-31T15:05:38;1.35;;;0.68;;
48795;SDS011;34607;48.520;-1.330;2023-07-31T15:08:06;0.60;;;0.60;;
48795;SDS011;34607;48.520;-1.330;2023-07-31T15:10:33;1.38;;;0.63;;
48795;SDS011;34607;48.520;-1.330;2023-07-31T15:13:00;0.40;;;0.40;;
48795;SDS011;34607;48.520;-1.330;2023-07-31T15:15:28;0.60;;;0.50;;
48795;SDS011;34607;48.520;-1.330;2023-07-31T15:17:56;0.30;;;0.30;;
48795;SDS011;34607;48.520;-1.330;2023-07-31T15:20:23;0.57;;;0.55;;
48795;SDS011;34607;48.520;-1.330;2023-07-31T15:22:50;0.60;;;0.40;;
48795;SDS011;34607;48.520;-1.330;2023-07-31T15:25:18;0.65;;;0.40;;
48795;SDS011;34607;48.520;-1.330;2023-07-31T15:27:45;1.65;;;0.80;;
48795;SDS011;34607;48.520;-1.330;2023-07-31T15:30:12;2.38;;;0.60;;
48795;SDS011;34607;48.520;-1.330;2023-07-31T15:32:39;1.13;;;0.63;;
48795;SDS011;34607;48.520;-1.330;2023-07-31T15:35:07;1.10;;;0.43;;
48795;SDS011;34607;48.520;-1.330;2023-07-31T15:37:34;0.60;;;0.43;;
48795;SDS011;34607;48.520;-1.330;2023-07-31T15:40:01;5.63;;;1.60;;
48795;SDS011;34607;48.520;-1.330;2023-07-31T15:42:29;1.27;;;0.85;;
48795;SDS011;34607;48.520;-1.330;2023-07-31T15:44:59;0.60;;;0.50;;
48795;SDS011;34607;48.520;-1.330;2023-07-31T15:47:26;0.90;;;0.57;;
48795;SDS011;34607;48.520;-1.330;2023-07-31T15:49:53;0.60;;;0.60;;
48795;SDS011;34607;48.520;-1.330;2023-07-31T15:52:20;1.15;;;1.05;;
48795;SDS011;34607;48.520;-1.330;2023-07-31T15:54:47;0.68;;;0.60;;
48795;SDS011;34607;48.520;-1.330;2023-07-31T15:57:14;2.28;;;0.80;;
48795;SDS011;34607;48.520;-1.330;2023-07-31T15:59:42;2.67;;;1.15;;
48795;SDS011;34607;48.520;-1.330;2023-07-31T16:02:09;2.83;;;1.10;;
48795;SDS011;34607;48.520;-1.330;2023-07-31T16:04:37;1.10;;;0.88;;
48795;SDS011;34607;48.520;-1.330;2023-07-31T16:07:05;2.53;;;1.00;;
48795;SDS011;34607;48.520;-1.330;2023-07-31T16:09:32;1.15;;;0.90;;
48795;SDS011;34607;48.520;-1.330;2023-07-31T16:11:59;2.55;;;0.95;;
48795;SDS011;34607;48.520;-1.330;2023-07-31T16:14:26;2.08;;;1.20;;
48795;SDS011;34607;48.520;-1.330;2023-07-31T16:16:55;1.20;;;1.00;;
48795;SDS011;34607;48.520;-1.330;2023-07-31T16:19:22;2.20;;;1.23;;
48795;SDS011;34607;48.520;-1.330;2023-07-31T16:21:49;2.33;;;1.33;;
48795;SDS011;34607;48.520;-1.330;2023-07-31T16:24:16;1.30;;;1.10;;
48795;SDS011;34607;48.520;-1.330;2023-07-31T16:26:43;2.30;;;1.63;;
48795;SDS011;34607;48.520;-1.330;2023-07-31T16:29:10;4.07;;;1.70;;
48795;SDS011;34607;48.520;-1.330;2023-07-31T16:31:37;3.97;;;1.80;;
48795;SDS011;34607;48.520;-1.330;2023-07-31T16:34:05;2.13;;;1.48;;
48795;SDS011;34607;48.520;-1.330;2023-07-31T16:36:32;2.85;;;1.42;;
48795;SDS011;34607;48.520;-1.330;2023-07-31T16:38:59;1.92;;;1.58;;
48795;SDS011;34607;48.520;-1.330;2023-07-31T16:41:27;3.13;;;1.80;;
48795;SDS011;34607;48.520;-1.330;2023-07-31T16:43:54;3.17;;;2.13;;
48795;SDS011;34607;48.520;-1.330;2023-07-31T16:46:21;2.13;;;1.55;;
48795;SDS011;34607;48.520;-1.330;2023-07-31T16:48:48;3.08;;;1.88;;
48795;SDS011;34607;48.520;-1.330;2023-07-31T16:51:16;4.78;;;2.17;;
48795;SDS011;34607;48.520;-1.330;2023-07-31T16:53:45;4.85;;;2.25;;
48795;SDS011;34607;48.520;-1.330;2023-07-31T16:56:14;4.22;;;2.38;;
48795;SDS011;34607;48.520;-1.330;2023-07-31T16:58:41;5.38;;;2.70;;
48795;SDS011;34607;48.520;-1.330;2023-07-31T17:01:09;5.10;;;2.85;;
48795;SDS011;34607;48.520;-1.330;2023-07-31T17:03:36;4.50;;;2.72;;
48795;SDS011;34607;48.520;-1.330;2023-07-31T17:06:03;5.43;;;3.17;;
48795;SDS011;34607;48.520;-1.330;2023-07-31T17:08:31;7.32;;;3.33;;
48795;SDS011;34607;48.520;-1.330;2023-07-31T17:10:58;6.00;;;3.03;;
48795;SDS011;34607;48.520;-1.330;2023-07-31T17:13:25;5.65;;;3.67;;
48795;SDS011;34607;48.520;-1.330;2023-07-31T17:15:52;5.60;;;3.83;;
48795;SDS011;34607;48.520;-1.330;2023-07-31T17:18:19;6.63;;;3.17;;
48795;SDS011;34607;48.520;-1.330;2023-07-31T17:20:46;10.23;;;3.92;;
48795;SDS011;34607;48.520;-1.330;2023-07-31T17:23:13;8.75;;;4.30;;
48795;SDS011;34607;48.520;-1.330;2023-07-31T17:25:42;9.65;;;4.82;;
48795;SDS011;34607;48.520;-1.330;2023-07-31T17:28:09;10.20;;;4.32;;
48795;SDS011;34607;48.520;-1.330;2023-07-31T17:30:36;8.55;;;4.22;;
48795;SDS011;34607;48.520;-1.330;2023-07-31T17:33:02;8.80;;;5.43;;
48795;SDS011;34607;48.520;-1.330;2023-07-31T17:35:30;10.88;;;3.78;;
48795;SDS011;34607;48.520;-1.330;2023-07-31T17:37:57;10.15;;;4.53;;
48795;SDS011;34607;48.520;-1.330;2023-07-31T17:40:24;8.35;;;3.88;;
48795;SDS011;34607;48.520;-1.330;2023-07-31T17:42:53;12.75;;;4.93;;
48795;SDS011;34607;48.520;-1.330;2023-07-31T17:45:20;9.55;;;4.03;;
48795;SDS011;34607;48.520;-1.330;2023-07-31T17:47:47;8.82;;;4.07;;
48795;SDS011;34607;48.520;-1.330;2023-07-31T17:50:14;9.77;;;3.80;;
48795;SDS011;34607;48.520;-1.330;2023-07-31T17:52:41;7.97;;;4.00;;
48795;SDS011;34607;48.520;-1.330;2023-07-31T17:55:08;7.47;;;3.17;;
48795;SDS011;34607;48.520;-1.330;2023-07-31T17:57:35;5.80;;;3.20;;
48795;SDS011;34607;48.520;-1.330;2023-07-31T18:00:04;6.65;;;3.65;;
48795;SDS011;34607;48.520;-1.330;2023-07-31T18:02:32;6.90;;;3.53;;
48795;SDS011;34607;48.520;-1.330;2023-07-31T18:05:00;6.65;;;3.38;;
48795;SDS011;34607;48.520;-1.330;2023-07-31T18:07:27;4.97;;;2.95;;
48795;SDS011;34607;48.520;-1.330;2023-07-31T18:09:54;5.70;;;2.70;;
48795;SDS011;34607;48.520;-1.330;2023-07-31T18:12:21;4.65;;;2.53;;
48795;SDS011;34607;48.520;-1.330;2023-07-31T18:14:48;4.57;;;2.63;;
48795;SDS011;34607;48.520;-1.330;2023-07-31T18:17:17;6.82;;;2.88;;
48795;SDS011;34607;48.520;-1.330;2023-07-31T18:19:44;5.93;;;2.30;;
48795;SDS011;34607;48.520;-1.330;2023-07-31T18:22:11;4.00;;;2.20;;
48795;SDS011;34607;48.520;-1.330;2023-07-31T18:24:38;3.03;;;2.38;;
48795;SDS011;34607;48.520;-1.330;2023-07-31T18:27:06;3.88;;;2.17;;
48795;SDS011;34607;48.520;-1.330;2023-07-31T18:29:33;2.88;;;2.22;;
48795;SDS011;34607;48.520;-1.330;2023-07-31T18:32:03;3.15;;;2.03;;
48795;SDS011;34607;48.520;-1.330;2023-07-31T18:34:32;5.70;;;2.17;;
48795;SDS011;34607;48.520;-1.330;2023-07-31T18:36:59;3.92;;;1.58;;
48795;SDS011;34607;48.520;-1.330;2023-07-31T18:39:29;2.83;;;1.50;;
48795;SDS011;34607;48.520;-1.330;2023-07-31T18:41:56;4.40;;;1.83;;
48795;SDS011;34607;48.520;-1.330;2023-07-31T18:44:23;4.53;;;1.88;;
48795;SDS011;34607;48.520;-1.330;2023-07-31T18:46:50;4.03;;;1.80;;
48795;SDS011;34607;48.520;-1.330;2023-07-31T18:49:17;2.25;;;1.63;;
48795;SDS011;34607;48.520;-1.330;2023-07-31T18:51:45;6.78;;;2.53;;
48795;SDS011;34607;48.520;-1.330;2023-07-31T18:54:12;4.78;;;1.88;;
48795;SDS011;34607;48.520;-1.330;2023-07-31T18:56:40;2.75;;;1.65;;
48795;SDS011;34607;48.520;-1.330;2023-07-31T18:59:07;2.15;;;1.63;;
48795;SDS011;34607;48.520;-1.330;2023-07-31T19:01:34;4.45;;;1.98;;
48795;SDS011;34607;48.520;-1.330;2023-07-31T19:04:01;3.78;;;1.65;;
48795;SDS011;34607;48.520;-1.330;2023-07-31T19:06:29;2.10;;;1.60;;
48795;SDS011;34607;48.520;-1.330;2023-07-31T19:08:58;6.57;;;2.90;;
